createdAt,value
2023-02-14T00:01:22.023Z,3.90
2023-02-14T00:03:50.086Z,3.90
2023-02-14T00:06:18.160Z,3.90
2023-02-14T00:08:45.848Z,3.90
2023-02-14T00:11:14.645Z,3.90
2023-02-14T00:14:02.841Z,3.80
2023-02-14T00:16:31.230Z,3.90
2023-02-14T00:19:04.865Z,3.80
2023-02-14T00:21:35.730Z,3.80
2023-02-14T00:24:03.783Z,3.80
2023-02-14T00:26:31.652Z,3.80
2023-02-14T00:28:59.445Z,3.80
2023-02-14T00:31:27.349Z,3.80
2023-02-14T00:33:56.816Z,3.80
2023-02-14T00:36:24.837Z,3.70
2023-02-14T00:38:52.617Z,3.70
2023-02-14T00:41:20.323Z,3.70
2023-02-14T00:43:48.424Z,3.70
2023-02-14T00:46:17.143Z,3.70
2023-02-14T00:48:46.495Z,3.60
2023-02-14T00:51:16.193Z,3.60
2023-02-14T00:53:43.902Z,3.60
2023-02-14T00:56:11.712Z,3.60
2023-02-14T00:58:39.421Z,3.60
2023-02-14T01:01:07.504Z,3.60
2023-02-14T01:03:36.806Z,3.50
2023-02-14T01:06:05.053Z,3.50
2023-02-14T01:08:34.464Z,3.50
2023-02-14T01:11:08.783Z,3.50
2023-02-14T01:13:36.508Z,3.50
2023-02-14T01:16:08.373Z,3.50
2023-02-14T01:18:36.477Z,3.50
2023-02-14T01:21:19.538Z,3.50
2023-02-14T01:23:50.495Z,3.50
2023-02-14T01:26:19.110Z,3.50
2023-02-14T01:28:47.548Z,3.50
2023-02-14T01:31:17.851Z,3.50
2023-02-14T01:33:47.409Z,3.50
2023-02-14T01:36:19.578Z,3.50
2023-02-14T01:38:51.516Z,3.40
2023-02-14T01:41:19.429Z,3.40
2023-02-14T01:43:57.034Z,3.40
2023-02-14T01:46:25.942Z,3.40
2023-02-14T01:48:56.559Z,3.40
2023-02-14T01:51:25.001Z,3.40
2023-02-14T01:53:54.874Z,3.40
2023-02-14T01:56:39.229Z,3.40
2023-02-14T01:59:09.805Z,3.40
2023-02-14T02:01:37.690Z,3.40
2023-02-14T02:04:10.563Z,3.40
2023-02-14T02:06:41.142Z,3.40
2023-02-14T02:09:15.913Z,3.40
2023-02-14T02:11:44.106Z,3.40
2023-02-14T02:14:15.826Z,3.40
2023-02-14T02:16:58.084Z,3.40
2023-02-14T02:19:58.235Z,3.40
2023-02-14T02:23:03.407Z,3.40
2023-02-14T02:26:00.603Z,3.30
2023-02-14T02:28:55.626Z,3.40
2023-02-14T02:31:47.684Z,3.40
2023-02-14T02:34:47.585Z,3.40
2023-02-14T02:37:28.784Z,3.40
2023-02-14T02:40:07.419Z,3.40
2023-02-14T02:42:46.053Z,3.40
2023-02-14T02:45:23.456Z,3.40
2023-02-14T02:47:57.745Z,3.40
2023-02-14T02:50:46.932Z,3.40
2023-02-14T02:53:22.024Z,3.50
2023-02-14T02:56:13.437Z,3.40
2023-02-14T02:58:46.618Z,3.40
2023-02-14T03:01:19.102Z,3.40
2023-02-14T03:04:07.260Z,3.40
2023-02-14T03:06:35.454Z,3.50
2023-02-14T03:09:13.336Z,3.50
2023-02-14T03:11:49.745Z,3.40
2023-02-14T03:14:23.532Z,3.40
2023-02-14T03:17:02.972Z,3.40
2023-02-14T03:20:10.143Z,3.40
2023-02-14T03:22:50.519Z,3.40
2023-02-14T03:25:29.318Z,3.40
2023-02-14T03:28:05.384Z,3.40
2023-02-14T03:30:40.255Z,3.40
2023-02-14T03:33:14.813Z,3.40
2023-02-14T03:35:51.103Z,3.40
2023-02-14T03:38:24.864Z,3.40
2023-02-14T03:41:00.046Z,3.40
2023-02-14T03:43:32.548Z,3.40
2023-02-14T03:46:05.655Z,3.40
2023-02-14T03:48:35.925Z,3.40
2023-02-14T03:51:05.554Z,3.30
2023-02-14T03:53:37.489Z,3.40
2023-02-14T03:56:13.768Z,3.30
2023-02-14T03:58:44.432Z,3.30
2023-02-14T04:01:16.145Z,3.30
2023-02-14T04:03:44.572Z,3.30
2023-02-14T04:06:12.518Z,3.30
2023-02-14T04:08:40.406Z,3.40
2023-02-14T04:11:09.524Z,3.40
2023-02-14T04:13:38.898Z,3.40
2023-02-14T04:16:07.916Z,3.40
2023-02-14T04:18:53.291Z,3.40
2023-02-14T04:21:21.024Z,3.40
2023-02-14T04:23:48.850Z,3.40
2023-02-14T04:26:17.936Z,3.40
2023-02-14T04:28:45.730Z,3.40
2023-02-14T04:31:13.603Z,3.40
2023-02-14T04:33:41.366Z,3.40
2023-02-14T04:36:09.400Z,3.40
2023-02-14T04:38:37.160Z,3.40
2023-02-14T04:41:05.213Z,3.40
2023-02-14T04:43:34.290Z,3.40
2023-02-14T04:46:02.030Z,3.40
2023-02-14T04:48:29.777Z,3.40
2023-02-14T04:50:57.584Z,3.40
2023-02-14T04:53:25.440Z,3.30
2023-02-14T04:55:53.142Z,3.30
2023-02-14T04:58:20.892Z,3.30
2023-02-14T05:00:50.029Z,3.30
2023-02-14T05:03:17.799Z,3.30
2023-02-14T05:05:45.555Z,3.30
2023-02-14T05:08:14.297Z,3.30
2023-02-14T05:10:42.071Z,3.30
2023-02-14T05:13:09.933Z,3.30
2023-02-14T05:15:38.626Z,3.30
2023-02-14T05:18:07.928Z,3.30
2023-02-14T05:20:35.648Z,3.30
2023-02-14T05:23:05.109Z,3.30
2023-02-14T05:25:32.913Z,3.30
2023-02-14T05:28:00.643Z,3.30
2023-02-14T05:30:28.917Z,3.30
2023-02-14T05:32:56.739Z,3.30
2023-02-14T05:35:25.837Z,3.30
2023-02-14T05:37:53.760Z,3.30
2023-02-14T05:42:49.651Z,3.20
2023-02-14T05:45:17.401Z,3.20
2023-02-14T05:47:45.440Z,3.20
2023-02-14T05:50:13.259Z,3.20
2023-02-14T05:52:42.424Z,3.20
2023-02-14T05:55:10.836Z,3.20
2023-02-14T05:57:38.624Z,3.20
2023-02-14T06:00:07.729Z,3.20
2023-02-14T06:02:35.528Z,3.20
2023-02-14T06:05:03.523Z,3.20
2023-02-14T06:07:31.282Z,3.20
2023-02-14T06:10:00.391Z,3.10
2023-02-14T06:12:28.332Z,3.10
2023-02-14T06:14:56.043Z,3.10
2023-02-14T06:17:23.867Z,3.10
2023-02-14T06:19:51.590Z,3.10
2023-02-14T06:22:19.322Z,3.10
2023-02-14T06:24:47.020Z,3.10
2023-02-14T06:27:16.127Z,3.10
2023-02-14T06:29:43.853Z,3.10
2023-02-14T06:32:11.774Z,3.10
2023-02-14T06:34:40.838Z,3.10
2023-02-14T06:37:08.722Z,3.10
2023-02-14T06:39:36.482Z,3.00
2023-02-14T06:42:04.227Z,3.00
2023-02-14T06:44:33.318Z,3.00
2023-02-14T06:47:01.041Z,3.00
2023-02-14T06:49:28.754Z,3.00
2023-02-14T06:51:56.607Z,3.00
2023-02-14T06:54:24.351Z,3.10
2023-02-14T06:56:52.060Z,3.10
2023-02-14T06:59:19.850Z,3.10
2023-02-14T07:01:49.079Z,3.10
2023-02-14T07:04:17.694Z,3.10
2023-02-14T07:06:45.854Z,3.10
2023-02-14T07:09:16.781Z,3.10
2023-02-14T07:11:45.946Z,3.10
2023-02-14T07:14:14.501Z,3.10
2023-02-14T07:16:42.304Z,3.20
2023-02-14T07:19:11.366Z,3.20
2023-02-14T07:21:39.050Z,3.20
2023-02-14T07:24:07.067Z,3.20
2023-02-14T07:26:34.787Z,3.20
2023-02-14T07:29:02.754Z,3.30
2023-02-14T07:31:30.519Z,3.30
2023-02-14T07:34:00.738Z,3.30
2023-02-14T07:36:29.846Z,3.30
2023-02-14T07:38:58.326Z,3.40
2023-02-14T07:41:26.146Z,3.40
2023-02-14T07:43:53.859Z,3.50
2023-02-14T07:46:21.609Z,3.50
2023-02-14T07:48:51.585Z,3.50
2023-02-14T07:51:19.408Z,3.60
2023-02-14T07:53:48.468Z,3.60
2023-02-14T07:56:16.249Z,3.70
2023-02-14T07:58:44.004Z,3.70
2023-02-14T08:01:11.787Z,3.80
2023-02-14T08:03:39.567Z,3.80
2023-02-14T08:06:07.405Z,3.80
2023-02-14T08:08:35.142Z,3.90
2023-02-14T08:11:04.272Z,3.90
2023-02-14T08:13:31.008Z,4.00
2023-02-14T08:16:09.445Z,4.00
2023-02-14T08:18:38.939Z,4.10
2023-02-14T08:21:08.608Z,4.10
2023-02-14T08:23:36.875Z,4.20
2023-02-14T08:26:06.392Z,4.20
2023-02-14T08:28:34.884Z,4.30
2023-02-14T08:31:03.979Z,4.30
2023-02-14T08:33:31.954Z,4.40
2023-02-14T08:36:00.135Z,4.40
2023-02-14T08:38:27.955Z,4.50
2023-02-14T08:40:55.804Z,4.50
2023-02-14T08:43:24.874Z,4.50
2023-02-14T08:45:54.485Z,4.60
2023-02-14T08:48:23.441Z,4.60
2023-02-14T08:50:51.273Z,4.60
2023-02-14T08:53:19.144Z,4.70
2023-02-14T08:55:47.123Z,4.70
2023-02-14T08:58:14.843Z,4.80
2023-02-14T09:00:43.970Z,4.80
2023-02-14T09:03:11.829Z,4.80
2023-02-14T09:05:39.615Z,4.90
2023-02-14T09:08:07.589Z,4.90
2023-02-14T09:10:35.338Z,5.00
2023-02-14T09:13:03.155Z,5.00
2023-02-14T09:15:30.934Z,5.10
2023-02-14T09:17:59.984Z,5.10
2023-02-14T09:20:27.784Z,5.10
2023-02-14T09:22:56.617Z,5.20
2023-02-14T09:25:24.367Z,5.30
2023-02-14T09:27:52.106Z,5.30
2023-02-14T09:30:19.934Z,5.40
2023-02-14T09:32:47.671Z,5.40
2023-02-14T09:35:34.154Z,5.40
2023-02-14T09:38:01.864Z,5.50
2023-02-14T09:40:29.867Z,5.60
2023-02-14T09:43:03.807Z,5.60
2023-02-14T09:45:33.611Z,5.70
2023-02-14T09:48:07.120Z,5.70
2023-02-14T09:50:40.647Z,5.80
2023-02-14T09:53:19.735Z,5.90
2023-02-14T09:55:52.927Z,6.00
2023-02-14T09:58:27.841Z,6.00
2023-02-14T10:01:00.876Z,6.10
2023-02-14T10:03:57.934Z,6.20
2023-02-14T10:06:49.545Z,6.30
2023-02-14T10:09:32.364Z,6.40
2023-02-14T10:12:01.985Z,6.40
2023-02-14T10:14:33.779Z,6.50
2023-02-14T10:17:07.902Z,6.60
2023-02-14T10:19:41.617Z,6.60
2023-02-14T10:22:15.415Z,6.70
2023-02-14T10:24:48.657Z,6.80
2023-02-14T10:27:30.560Z,6.80
2023-02-14T10:29:58.284Z,6.90
2023-02-14T10:32:30.952Z,7.00
2023-02-14T10:35:04.498Z,7.10
2023-02-14T10:37:49.205Z,7.20
2023-02-14T10:40:41.976Z,7.20
2023-02-14T10:43:19.533Z,7.30
2023-02-14T10:45:54.675Z,7.40
2023-02-14T10:48:30.853Z,7.50
2023-02-14T10:51:05.591Z,7.60
2023-02-14T10:53:43.536Z,7.70
2023-02-14T10:56:20.401Z,7.80
2023-02-14T10:58:51.310Z,7.90
2023-02-14T11:01:20.155Z,7.90
2023-02-14T11:03:53.822Z,8.00
2023-02-14T11:06:21.563Z,8.10
2023-02-14T11:08:50.753Z,8.20
2023-02-14T11:11:25.340Z,8.30
2023-02-14T11:13:53.468Z,8.50
2023-02-14T11:16:31.446Z,8.60
2023-02-14T11:19:10.876Z,8.70
2023-02-14T11:21:40.144Z,8.80
2023-02-14T11:24:20.520Z,8.90
2023-02-14T11:26:52.854Z,9.00
2023-02-14T11:29:27.206Z,9.10
2023-02-14T11:31:55.594Z,9.20
2023-02-14T11:34:36.575Z,9.20
2023-02-14T11:37:05.047Z,9.30
2023-02-14T11:39:36.104Z,9.40
2023-02-14T11:42:06.072Z,9.40
2023-02-14T11:44:37.185Z,9.50
2023-02-14T11:47:25.586Z,9.50
2023-02-14T11:50:00.959Z,9.60
2023-02-14T11:52:31.214Z,9.70
2023-02-14T11:55:02.820Z,9.70
2023-02-14T11:57:35.381Z,9.80
2023-02-14T12:00:15.618Z,9.90
2023-02-14T12:02:47.334Z,9.90
2023-02-14T12:05:20.344Z,9.90
2023-02-14T12:07:50.394Z,10.00
2023-02-14T12:10:28.333Z,10.10
2023-02-14T12:12:59.668Z,10.20
2023-02-14T12:15:37.671Z,10.20
2023-02-14T12:18:39.009Z,10.30
2023-02-14T12:21:21.531Z,10.40
2023-02-14T12:24:00.270Z,10.50
2023-02-14T12:26:33.901Z,10.50
2023-02-14T12:29:10.745Z,10.60
2023-02-14T12:31:38.509Z,10.60
2023-02-14T12:34:06.570Z,10.70
2023-02-14T12:36:45.166Z,10.70
2023-02-14T12:39:25.318Z,10.70
2023-02-14T12:42:04.738Z,10.70
2023-02-14T12:44:43.092Z,10.80
2023-02-14T12:47:21.865Z,10.80
2023-02-14T12:50:25.260Z,10.90
2023-02-14T12:53:06.018Z,10.90
2023-02-14T12:55:49.474Z,11.00
2023-02-14T12:58:29.888Z,11.10
2023-02-14T13:01:09.517Z,11.10
2023-02-14T13:04:04.886Z,11.20
2023-02-14T13:06:36.300Z,11.20
2023-02-14T13:09:19.267Z,11.20
2023-02-14T13:11:58.978Z,11.30
2023-02-14T13:14:42.163Z,11.30
2023-02-14T13:17:19.963Z,11.30
2023-02-14T13:19:56.467Z,11.40
2023-02-14T13:22:27.519Z,11.40
2023-02-14T13:25:00.481Z,11.50
2023-02-14T13:27:32.301Z,11.50
2023-02-14T13:30:04.456Z,11.50
2023-02-14T13:32:37.358Z,11.60
2023-02-14T13:35:06.467Z,11.60
2023-02-14T13:37:34.652Z,11.70
2023-02-14T13:40:05.522Z,11.70
2023-02-14T13:42:54.739Z,11.80
2023-02-14T13:45:55.534Z,11.80
2023-02-14T13:48:25.524Z,11.90
2023-02-14T13:50:56.030Z,11.90
2023-02-14T13:53:42.187Z,11.90
2023-02-14T13:56:32.753Z,12.00
2023-02-14T13:59:04.392Z,12.00
2023-02-14T14:01:40.392Z,12.10
2023-02-14T14:04:36.274Z,12.10
2023-02-14T14:07:18.915Z,12.10
2023-02-14T14:10:12.741Z,12.20
2023-02-14T14:12:46.349Z,12.20
2023-02-14T14:15:21.352Z,12.20
2023-02-14T14:18:30.116Z,12.20
2023-02-14T14:20:58.638Z,12.30
2023-02-14T14:23:34.269Z,12.30
2023-02-14T14:26:02.688Z,12.30
2023-02-14T14:28:33.864Z,12.30
2023-02-14T14:31:01.769Z,12.30
2023-02-14T14:33:33.128Z,12.30
2023-02-14T14:36:04.035Z,12.40
2023-02-14T14:38:34.477Z,12.40
2023-02-14T14:41:02.983Z,12.40
2023-02-14T14:43:33.633Z,12.40
2023-02-14T14:46:03.989Z,12.40
2023-02-14T14:48:38.151Z,12.30
2023-02-14T14:51:08.317Z,12.30
2023-02-14T14:53:44.307Z,12.20
2023-02-14T14:56:13.996Z,12.10
2023-02-14T14:58:43.042Z,12.00
2023-02-14T15:01:21.129Z,12.00
2023-02-14T15:03:50.275Z,11.90
2023-02-14T15:06:21.054Z,11.80
2023-02-14T15:08:49.856Z,11.70
2023-02-14T15:11:35.227Z,11.70
2023-02-14T15:14:05.598Z,11.60
2023-02-14T15:16:39.110Z,11.60
2023-02-14T15:19:12.205Z,11.50
2023-02-14T15:21:44.524Z,11.40
2023-02-14T15:24:15.646Z,11.40
2023-02-14T15:26:45.011Z,11.30
2023-02-14T15:29:22.909Z,11.30
2023-02-14T15:31:51.121Z,11.20
2023-02-14T15:34:24.543Z,11.10
2023-02-14T15:36:53.874Z,11.10
2023-02-14T15:39:24.822Z,11.00
2023-02-14T15:41:55.483Z,10.90
2023-02-14T15:44:24.847Z,10.90
2023-02-14T15:46:56.637Z,10.80
2023-02-14T15:49:32.364Z,10.80
2023-02-14T15:52:02.704Z,10.70
2023-02-14T15:54:35.211Z,10.60
2023-02-14T15:57:03.659Z,10.60
2023-02-14T15:59:34.280Z,10.50
2023-02-14T16:02:06.091Z,10.50
2023-02-14T16:04:36.603Z,10.40
2023-02-14T16:07:08.711Z,10.40
2023-02-14T16:09:37.401Z,10.40
2023-02-14T16:12:30.683Z,10.30
2023-02-14T16:15:17.799Z,10.20
2023-02-14T16:17:45.639Z,10.20
2023-02-14T16:20:30.056Z,10.10
2023-02-14T16:23:19.002Z,10.10
2023-02-14T16:25:47.194Z,10.00
2023-02-14T16:28:15.595Z,10.00
2023-02-14T16:30:45.001Z,9.90
2023-02-14T16:33:17.468Z,9.90
2023-02-14T16:35:46.865Z,9.90
2023-02-14T16:38:16.353Z,9.80
2023-02-14T16:40:46.141Z,9.80
2023-02-14T16:43:15.040Z,9.70
2023-02-14T16:45:43.091Z,9.60
2023-02-14T16:48:11.314Z,9.60
2023-02-14T16:50:40.751Z,9.50
2023-02-14T16:53:15.182Z,9.40
2023-02-14T16:55:43.235Z,9.30
2023-02-14T16:58:10.983Z,9.20
2023-02-14T17:00:39.508Z,9.20
2023-02-14T17:03:07.279Z,9.10
2023-02-14T17:05:36.507Z,9.00
2023-02-14T17:08:05.237Z,8.90
2023-02-14T17:10:35.059Z,8.80
2023-02-14T17:13:04.581Z,8.80
2023-02-14T17:15:32.890Z,8.70
2023-02-14T17:18:03.907Z,8.70
2023-02-14T17:20:31.999Z,8.60
2023-02-14T17:22:59.811Z,8.50
2023-02-14T17:25:27.523Z,8.50
2023-02-14T17:27:57.026Z,8.40
2023-02-14T17:30:24.994Z,8.40
2023-02-14T17:32:52.825Z,8.30
2023-02-14T17:35:21.168Z,8.30
2023-02-14T17:37:49.374Z,8.20
2023-02-14T17:40:17.229Z,8.10
2023-02-14T17:42:45.813Z,8.10
2023-02-14T17:45:15.237Z,8.00
2023-02-14T17:47:44.523Z,7.90
2023-02-14T17:50:13.109Z,7.90
2023-02-14T17:52:41.351Z,7.80
2023-02-14T17:55:10.039Z,7.70
2023-02-14T17:57:39.066Z,7.70
2023-02-14T18:00:11.314Z,7.60
2023-02-14T18:02:40.845Z,7.60
2023-02-14T18:05:08.993Z,7.50
2023-02-14T18:07:36.916Z,7.40
2023-02-14T18:10:04.975Z,7.40
2023-02-14T18:12:32.788Z,7.40
2023-02-14T18:15:00.528Z,7.30
2023-02-14T18:17:28.243Z,7.30
2023-02-14T18:19:57.502Z,7.20
2023-02-14T18:22:25.210Z,7.20
2023-02-14T18:24:52.937Z,7.10
2023-02-14T18:27:20.650Z,7.10
2023-02-14T18:29:48.546Z,7.10
2023-02-14T18:32:16.360Z,7.10
2023-02-14T18:34:44.143Z,7.00
2023-02-14T18:37:14.664Z,7.00
2023-02-14T18:39:42.402Z,6.90
2023-02-14T18:42:10.112Z,6.90
2023-02-14T18:44:38.246Z,6.80
2023-02-14T18:47:07.075Z,6.70
2023-02-14T18:49:34.967Z,6.70
2023-02-14T18:52:04.796Z,6.60
2023-02-14T18:54:34.380Z,6.50
2023-02-14T18:57:02.101Z,6.40
2023-02-14T18:59:29.827Z,6.40
2023-02-14T19:01:57.594Z,6.40
2023-02-14T19:04:25.346Z,6.30
2023-02-14T19:06:53.253Z,6.30
2023-02-14T19:09:21.151Z,6.30
2023-02-14T19:11:50.204Z,6.20
2023-02-14T19:14:19.570Z,6.20
2023-02-14T19:16:50.358Z,6.10
2023-02-14T19:19:18.687Z,6.10
2023-02-14T19:21:46.795Z,6.00
2023-02-14T19:24:16.313Z,6.00
2023-02-14T19:26:44.649Z,5.90
2023-02-14T19:29:16.586Z,5.90
2023-02-14T19:31:48.252Z,5.80
2023-02-14T19:34:18.254Z,5.80
2023-02-14T19:36:46.284Z,5.70
2023-02-14T19:39:14.868Z,5.80
2023-02-14T19:41:42.952Z,5.70
2023-02-14T19:44:14.588Z,5.70
2023-02-14T19:46:43.470Z,5.70
2023-02-14T19:49:14.297Z,5.70
2023-02-14T19:51:42.700Z,5.70
2023-02-14T19:54:10.874Z,5.60
2023-02-14T19:56:40.618Z,5.60
2023-02-14T19:59:09.460Z,5.60
2023-02-14T20:01:41.762Z,5.50
2023-02-14T20:04:11.985Z,5.50
2023-02-14T20:06:39.836Z,5.40
2023-02-14T20:09:08.861Z,5.40
2023-02-14T20:11:39.258Z,5.40
2023-02-14T20:14:07.529Z,5.40
2023-02-14T20:16:37.086Z,5.40
2023-02-14T20:19:08.446Z,5.30
2023-02-14T20:21:36.628Z,5.30
2023-02-14T20:24:06.002Z,5.30
2023-02-14T20:26:34.936Z,5.30
2023-02-14T20:29:04.621Z,5.30
2023-02-14T20:31:33.341Z,5.20
2023-02-14T20:34:01.534Z,5.20
2023-02-14T20:36:31.417Z,5.20
2023-02-14T20:39:00.347Z,5.10
2023-02-14T20:41:29.018Z,5.10
2023-02-14T20:43:57.289Z,5.10
2023-02-14T20:46:25.073Z,5.00
2023-02-14T20:48:54.034Z,5.00
2023-02-14T20:51:22.650Z,4.90
2023-02-14T20:53:52.483Z,4.90
2023-02-14T20:56:22.629Z,4.90
2023-02-14T20:58:51.045Z,4.90
2023-02-14T21:01:20.841Z,4.90
2023-02-14T21:03:51.305Z,4.80
2023-02-14T21:06:20.713Z,4.80
2023-02-14T21:08:48.935Z,4.80
2023-02-14T21:11:20.103Z,4.70
2023-02-14T21:13:47.881Z,4.70
2023-02-14T21:16:18.451Z,4.70
2023-02-14T21:18:51.520Z,4.70
2023-02-14T21:21:25.807Z,4.70
2023-02-14T21:23:54.247Z,4.60
2023-02-14T21:26:24.328Z,4.60
2023-02-14T21:28:52.209Z,4.60
2023-02-14T21:31:21.890Z,4.60
2023-02-14T21:33:51.197Z,4.50
2023-02-14T21:36:21.677Z,4.50
2023-02-14T21:38:49.551Z,4.50
2023-02-14T21:41:19.902Z,4.50
2023-02-14T21:43:52.333Z,4.40
2023-02-14T21:46:26.863Z,4.40
2023-02-14T21:49:12.634Z,4.40
2023-02-14T21:51:40.933Z,4.30
2023-02-14T21:54:09.343Z,4.30
2023-02-14T21:56:38.783Z,4.30
2023-02-14T21:59:08.895Z,4.30
2023-02-14T22:01:40.206Z,4.20
2023-02-14T22:04:08.995Z,4.20
2023-02-14T22:06:38.734Z,4.20
2023-02-14T22:09:07.227Z,4.20
2023-02-14T22:11:35.432Z,4.10
2023-02-14T22:14:03.656Z,4.10
2023-02-14T22:16:32.792Z,4.10
2023-02-14T22:19:00.499Z,4.10
2023-02-14T22:21:28.530Z,4.10
2023-02-14T22:23:56.584Z,4.10
2023-02-14T22:26:26.405Z,4.00
2023-02-14T22:28:56.834Z,3.90
2023-02-14T22:31:26.706Z,3.90
2023-02-14T22:33:56.063Z,3.90
2023-02-14T22:36:23.803Z,3.90
2023-02-14T22:38:51.588Z,3.90
2023-02-14T22:41:21.688Z,3.90
2023-02-14T22:43:49.567Z,3.90
2023-02-14T22:46:20.234Z,3.80
2023-02-14T22:48:49.177Z,3.80
2023-02-14T22:51:22.330Z,3.80
2023-02-14T22:53:50.786Z,3.80
2023-02-14T22:56:20.410Z,3.70
2023-02-14T22:58:48.247Z,3.80
2023-02-14T23:01:17.213Z,3.70
2023-02-14T23:03:46.113Z,3.70
2023-02-14T23:06:15.119Z,3.70
2023-02-14T23:08:46.057Z,3.60
2023-02-14T23:11:15.706Z,3.60
2023-02-14T23:14:01.148Z,3.60
2023-02-14T23:16:46.551Z,3.60
2023-02-14T23:19:33.366Z,3.60
2023-02-14T23:22:04.459Z,3.50
2023-02-14T23:24:33.985Z,3.50
2023-02-14T23:27:02.054Z,3.50
2023-02-14T23:29:30.038Z,3.50
2023-02-14T23:31:58.271Z,3.50
2023-02-14T23:34:26.173Z,3.50
2023-02-14T23:36:53.893Z,3.50
2023-02-14T23:39:21.797Z,3.50
2023-02-14T23:41:51.125Z,3.50
2023-02-14T23:44:20.686Z,3.40
2023-02-14T23:46:49.540Z,3.40
2023-02-14T23:49:18.400Z,3.40
2023-02-14T23:51:47.594Z,3.40
2023-02-14T23:54:16.019Z,3.30
2023-02-14T23:56:45.183Z,3.30
2023-02-14T23:59:15.319Z,3.30
